Time;durP1;ratioP1;P1;durP2;ratioP2;P2;SDS_P1;SDS_P2;PMS_P1;PMS_P2;Temp;Humidity;BMP_temperature;BMP_pressure;BME280_temperature;BME280_humidity;BME280_pressure;Samples;Min_cycle;Max_cycle;Signal;HPM_P1;HPM_P2
2022/08/13 00:02:02;;;;;;;4.63;3.25;;;;;;;21.79;48.93;101375.91;5086179;27;20388;-75
2022/08/13 00:04:30;;;;;;;5.20;3.20;;;;;;;21.72;49.20;101383.59;5085042;27;20181;-74
2022/08/13 00:07:06;;;;;;;5.07;3.10;;;;;;;21.34;49.46;101384.28;5085977;28;20044;-74
2022/08/13 00:09:34;;;;;;;4.28;2.80;;;;;;;21.03;48.70;101390.50;5086745;28;20036;-74
2022/08/13 00:14:47;;;;;;;5.22;3.30;;;;;;;20.42;49.69;101372.66;5085358;27;20114;-74
2022/08/13 00:17:15;;;;;;;5.47;3.40;;;;;;;20.52;49.10;101378.91;5084800;28;20127;-74
2022/08/13 00:19:47;;;;;;;4.55;3.00;;;;;;;20.75;47.21;101377.84;5085243;28;20054;-74
2022/08/13 00:22:14;;;;;;;11.25;3.30;;;;;;;21.01;45.90;101376.47;5086685;28;20090;-74
2022/08/13 00:24:41;;;;;;;4.55;3.13;;;;;;;20.96;46.25;101372.50;5086127;28;20052;-74
2022/08/13 00:27:07;;;;;;;5.18;3.00;;;;;;;20.79;46.23;101374.78;5079826;28;20433;-74
2022/08/13 00:29:36;;;;;;;3.83;2.92;;;;;;;20.66;47.19;101376.78;5072967;27;20059;-74
2022/08/13 00:32:03;;;;;;;4.70;3.15;;;;;;;20.63;47.09;101368.19;5093494;28;20168;-75
2022/08/13 00:34:30;;;;;;;8.23;3.20;;;;;;;20.67;47.43;101370.47;5076879;27;20036;-74
2022/08/13 00:36:58;;;;;;;4.95;3.00;;;;;;;20.92;46.45;101366.59;5073814;28;20049;-74
2022/08/13 00:39:25;;;;;;;6.10;3.00;;;;;;;20.65;47.56;101372.44;5064826;28;20617;-74
2022/08/13 00:41:51;;;;;;;5.07;3.40;;;;;;;20.70;47.59;101364.03;5063890;28;20472;-74
2022/08/13 00:44:18;;;;;;;6.82;3.10;;;;;;;20.58;47.67;101373.09;5075004;28;20477;-74
2022/08/13 00:46:46;;;;;;;4.75;3.13;;;;;;;20.44;47.94;101373.38;5080291;28;20051;-74
2022/08/13 00:49:13;;;;;;;10.27;4.35;;;;;;;20.27;48.63;101378.25;5083393;28;20048;-74
2022/08/13 00:51:41;;;;;;;6.53;3.42;;;;;;;20.30;48.00;101374.50;5083569;28;20055;-74
2022/08/13 00:54:11;;;;;;;4.47;3.30;;;;;;;20.46;47.89;101369.63;5087346;28;20490;-74
2022/08/13 00:56:38;;;;;;;4.22;3.20;;;;;;;20.44;47.91;101368.03;5083186;28;20048;-75
2022/08/13 00:59:12;;;;;;;6.93;3.88;;;;;;;20.48;48.34;101366.81;5069941;28;20047;-74
2022/08/13 01:01:39;;;;;;;7.25;3.60;;;;;;;20.59;47.69;101366.75;5084545;28;20466;-74
2022/08/13 01:04:07;;;;;;;5.45;3.20;;;;;;;20.50;48.13;101372.88;5086106;28;20121;-74
2022/08/13 01:06:35;;;;;;;4.68;3.30;;;;;;;20.59;47.85;101369.44;5082800;28;20052;-74
2022/08/13 01:09:02;;;;;;;5.05;3.60;;;;;;;20.37;48.54;101367.69;5084804;27;20048;-74
2022/08/13 01:11:33;;;;;;;6.30;3.50;;;;;;;20.36;48.46;101366.03;5077036;27;20098;-74
2022/08/13 01:14:07;;;;;;;8.75;3.70;;;;;;;20.39;49.03;101366.63;5074911;27;20046;-74
2022/08/13 01:16:36;;;;;;;5.68;3.47;;;;;;;20.47;48.32;101373.13;5086551;28;20561;-74
2022/08/13 01:19:06;;;;;;;7.22;3.70;;;;;;;20.37;48.50;101360.56;5084880;28;20067;-74
2022/08/13 01:21:36;;;;;;;6.20;3.63;;;;;;;20.34;48.93;101357.31;5086072;28;20036;-74
2022/08/13 01:24:04;;;;;;;5.00;3.45;;;;;;;20.32;48.74;101359.28;5090175;28;20044;-74
2022/08/13 01:26:32;;;;;;;5.15;3.67;;;;;;;20.20;49.26;101362.91;5085993;27;20043;-74
2022/08/13 01:29:01;;;;;;;5.50;3.58;;;;;;;20.03;49.45;101364.25;5102748;27;20054;-74
2022/08/13 01:31:28;;;;;;;5.25;3.22;;;;;;;20.09;49.59;101352.28;5112709;27;20032;-74
2022/08/13 01:33:59;;;;;;;9.70;3.60;;;;;;;20.22;48.88;101356.47;5095228;28;20028;-74
2022/08/13 01:36:27;;;;;;;5.60;4.13;;;;;;;20.22;48.70;101359.13;5112676;27;20092;-74
2022/08/13 01:38:57;;;;;;;6.38;3.53;;;;;;;20.06;48.97;101356.06;5111233;28;20046;-74
2022/08/13 01:41:26;;;;;;;6.10;3.22;;;;;;;19.98;49.09;101353.16;5096669;28;20453;-74
2022/08/13 01:44:04;;;;;;;3.80;3.03;;;;;;;19.96;49.21;101354.22;5090194;28;20140;-75
2022/08/13 01:50:28;;;;;;;7.93;3.53;;;;;;;19.74;50.06;101357.78;5086974;28;20416;-74
2022/08/13 01:52:01;;;;;;;5.32;3.60;;;;;;;19.89;50.57;101345.91;5086898;28;20050;-74
2022/08/13 01:54:30;;;;;;;6.05;3.55;;;;;;;19.79;50.38;101337.84;5088862;28;20105;-75
2022/08/13 01:56:59;;;;;;;8.57;3.80;;;;;;;19.81;50.44;101348.34;5094056;27;20047;-74
2022/08/13 01:59:26;;;;;;;6.80;3.50;;;;;;;19.71;50.81;101353.56;5087260;28;20047;-74
2022/08/13 02:01:53;;;;;;;4.22;3.38;;;;;;;19.73;51.57;101348.13;5089644;28;20048;-74
2022/08/13 02:04:21;;;;;;;8.20;3.70;;;;;;;20.01;50.22;101344.91;5080492;28;20076;-75
2022/08/13 02:06:48;;;;;;;5.63;3.75;;;;;;;20.13;49.32;101343.94;5081943;28;20048;-75
2022/08/13 02:09:15;;;;;;;6.13;3.33;;;;;;;20.27;48.98;101338.31;5088987;28;20058;-75
2022/08/13 02:11:43;;;;;;;6.70;3.65;;;;;;;20.39;48.80;101333.81;5082002;28;20105;-74
2022/08/13 02:14:11;;;;;;;8.55;4.68;;;;;;;20.35;49.06;101333.22;5082636;28;20495;-75
2022/08/13 02:16:38;;;;;;;4.32;3.55;;;;;;;20.29;49.34;101336.38;5089012;28;20135;-75
2022/08/13 02:19:07;;;;;;;8.93;3.40;;;;;;;20.15;49.62;101330.47;5086786;28;20466;-74
2022/08/13 02:21:35;;;;;;;5.32;3.63;;;;;;;19.90;50.21;101337.81;5088869;28;20116;-74
2022/08/13 02:24:03;;;;;;;5.93;3.45;;;;;;;19.76;50.82;101340.75;5087952;28;20052;-74
2022/08/13 02:26:35;;;;;;;5.05;3.50;;;;;;;19.51;51.77;101343.66;5079945;28;20052;-74
2022/08/13 02:29:05;;;;;;;4.53;3.42;;;;;;;19.59;52.15;101345.69;5079094;28;20133;-74
2022/08/13 02:31:34;;;;;;;6.22;4.07;;;;;;;19.41;53.11;101338.22;5088193;28;20048;-74
2022/08/13 02:34:01;;;;;;;4.55;3.85;;;;;;;19.62;53.00;101334.84;5091316;27;20044;-74
2022/08/13 02:36:30;;;;;;;5.32;4.07;;;;;;;19.65;52.79;101339.91;5090936;28;20052;-74
2022/08/13 02:38:57;;;;;;;7.95;4.00;;;;;;;19.55;53.84;101341.63;5089795;27;20450;-74
2022/08/13 02:41:42;;;;;;;7.05;3.67;;;;;;;19.64;52.96;101335.56;5089553;27;20040;-74
2022/08/13 02:44:12;;;;;;;5.53;3.30;;;;;;;19.61;53.05;101346.44;5087476;28;20127;-74
2022/08/13 02:46:39;;;;;;;5.15;3.63;;;;;;;19.49;52.81;101331.44;5089470;28;20055;-74
2022/08/13 02:49:06;;;;;;;6.78;3.72;;;;;;;19.56;52.66;101337.97;5089500;28;20048;-74
2022/08/13 02:51:33;;;;;;;6.63;3.70;;;;;;;19.66;52.76;101330.97;5087980;28;20043;-75
2022/08/13 02:54:01;;;;;;;8.75;3.95;;;;;;;19.55;53.53;101331.81;5089228;28;20047;-76
2022/08/13 02:56:28;;;;;;;5.93;3.80;;;;;;;19.52;53.65;101323.22;5089942;27;20047;-74
2022/08/13 02:58:56;;;;;;;8.23;4.20;;;;;;;19.60;53.49;101328.78;5087290;28;20584;-74
2022/08/13 03:01:24;;;;;;;7.40;3.80;;;;;;;19.75;52.79;101324.91;5088137;28;20052;-75
2022/08/13 03:03:51;;;;;;;5.88;3.80;;;;;;;19.52;53.71;101323.22;5089590;27;20037;-74
2022/08/13 03:06:19;;;;;;;6.60;4.25;;;;;;;19.39;53.86;101326.84;5087549;28;20089;-74
2022/08/13 03:08:46;;;;;;;7.03;3.63;;;;;;;19.33;54.55;101327.31;5087020;28;20094;-76
2022/08/13 03:11:13;;;;;;;9.30;4.00;;;;;;;19.25;55.60;101323.59;5086517;27;20089;-74
2022/08/13 03:13:44;;;;;;;9.20;3.97;;;;;;;19.29;55.01;101333.00;5087086;27;20052;-74
2022/08/13 03:16:15;;;;;;;9.23;4.03;;;;;;;19.40;55.26;101331.19;5088138;28;20048;-74
2022/08/13 03:18:43;;;;;;;5.05;4.07;;;;;;;19.51;54.83;101337.50;5086297;28;20548;-74
2022/08/13 03:21:10;;;;;;;5.10;3.58;;;;;;;19.44;55.03;101330.00;5087598;27;20043;-74
2022/08/13 03:23:36;;;;;;;6.82;4.43;;;;;;;19.67;54.34;101332.63;5087016;27;20040;-74
2022/08/13 03:26:03;;;;;;;5.78;4.00;;;;;;;19.58;54.75;101320.94;5085524;27;20040;-74
2022/08/13 03:28:30;;;;;;;4.55;3.83;;;;;;;19.74;54.35;101332.03;5087278;28;20491;-74
2022/08/13 03:30:56;;;;;;;6.60;3.80;;;;;;;19.56;54.50;101325.53;5087171;28;20372;-74
2022/08/13 03:33:23;;;;;;;7.20;4.28;;;;;;;19.50;54.76;101315.38;5085540;27;20049;-74
2022/08/13 03:35:51;;;;;;;4.80;3.70;;;;;;;19.29;55.20;101325.84;5087306;28;20128;-74
2022/08/13 03:38:17;;;;;;;9.90;4.18;;;;;;;19.34;55.25;101329.00;5085428;28;20047;-74
2022/08/13 03:41:02;;;;;;;7.53;4.30;;;;;;;19.32;55.17;101330.97;5084333;28;20036;-74
2022/08/13 03:43:30;;;;;;;9.88;5.70;;;;;;;19.38;55.00;101330.47;5085350;28;20044;-74
2022/08/13 03:45:57;;;;;;;5.20;3.70;;;;;;;19.37;55.39;101322.59;5087161;28;20047;-74
2022/08/13 03:48:26;;;;;;;6.53;3.92;;;;;;;19.37;55.07;101326.09;5086622;28;20056;-74
2022/08/13 03:50:55;;;;;;;7.32;3.80;;;;;;;19.43;55.02;101322.16;5086206;27;20109;-74
2022/08/13 03:53:21;;;;;;;5.75;4.25;;;;;;;19.46;55.34;101332.56;5083905;28;20040;-74
2022/08/13 03:55:48;;;;;;;6.28;3.80;;;;;;;19.62;54.53;101326.88;5087389;28;20052;-75
2022/08/13 03:58:15;;;;;;;6.25;3.95;;;;;;;19.69;54.35;101323.59;5084023;27;20040;-74
2022/08/13 04:00:47;;;;;;;6.60;4.13;;;;;;;19.57;54.88;101324.56;5083605;28;20070;-74
2022/08/13 04:03:19;;;;;;;6.80;4.63;;;;;;;19.54;54.56;101319.50;5086890;28;20632;-74
2022/08/13 04:05:45;;;;;;;6.85;4.25;;;;;;;19.55;54.76;101315.84;5086317;28;20039;-74
2022/08/13 04:08:13;;;;;;;7.20;4.10;;;;;;;19.48;55.13;101319.97;5071575;28;20056;-74
2022/08/13 04:10:40;;;;;;;7.22;5.30;;;;;;;19.61;54.49;101320.69;5071660;27;20052;-74
2022/08/13 04:13:12;;;;;;;9.00;5.40;;;;;;;19.55;54.91;101315.03;5086503;28;20491;-74
2022/08/13 04:15:42;;;;;;;5.45;3.83;;;;;;;19.61;54.62;101314.53;5085203;28;20050;-75
2022/08/13 04:18:11;;;;;;;10.60;4.45;;;;;;;19.50;55.44;101318.03;5086248;28;20044;-74
2022/08/13 04:20:38;;;;;;;8.57;4.20;;;;;;;19.56;55.02;101322.00;5084458;28;20055;-74
2022/08/13 04:23:07;;;;;;;5.38;4.03;;;;;;;19.61;54.74;101314.53;5086347;28;20051;-75
2022/08/13 04:25:35;;;;;;;6.75;4.32;;;;;;;19.58;55.16;101325.41;5085319;27;20055;-74
2022/08/13 04:28:02;;;;;;;6.90;4.32;;;;;;;19.57;55.30;101326.38;5083423;28;20040;-75
2022/08/13 04:30:28;;;;;;;6.70;4.43;;;;;;;19.44;55.66;101323.81;5085298;28;20101;-74
2022/08/13 04:32:55;;;;;;;11.20;4.10;;;;;;;19.47;55.71;101326.28;5083901;28;20105;-74
2022/08/13 04:35:21;;;;;;;5.10;3.97;;;;;;;19.00;57.56;101329.94;5084185;28;20043;-74
2022/08/13 04:37:47;;;;;;;9.30;4.40;;;;;;;19.03;57.23;101324.38;5086741;28;20048;-74
2022/08/13 04:40:14;;;;;;;5.18;4.10;;;;;;;19.15;57.40;101326.09;5085776;28;20086;-74
2022/08/13 04:42:47;;;;;;;4.88;4.05;;;;;;;19.18;57.95;101333.81;5083635;28;20110;-74
2022/08/13 04:45:14;;;;;;;7.13;4.53;;;;;;;19.31;57.68;101333.72;5085530;28;20060;-74
2022/08/13 04:47:42;;;;;;;6.68;4.15;;;;;;;19.50;57.25;101333.16;5085432;28;20078;-76
2022/08/13 04:50:10;;;;;;;5.63;4.30;;;;;;;19.55;57.18;101336.31;5083800;28;20093;-74
2022/08/13 04:52:36;;;;;;;9.05;4.45;;;;;;;19.72;56.80;101326.00;5085622;28;20048;-76
2022/08/13 04:55:03;;;;;;;10.95;4.55;;;;;;;19.85;55.82;101329.34;5085457;28;20051;-74
2022/08/13 04:57:30;;;;;;;6.53;4.30;;;;;;;20.07;55.45;101328.44;5083219;27;20139;-75
2022/08/13 04:59:58;;;;;;;12.25;4.65;;;;;;;20.14;55.22;101324.28;5087181;28;20048;-75
2022/08/13 05:02:24;;;;;;;8.75;4.05;;;;;;;20.52;54.12;101329.13;5064619;28;21655;-75
2022/08/13 05:04:51;;;;;;;11.27;4.70;;;;;;;20.59;54.21;101324.13;5072375;27;20045;-75
2022/08/13 05:07:18;;;;;;;5.07;4.20;;;;;;;20.78;53.53;101324.28;5082267;27;20040;-76
2022/08/13 05:09:44;;;;;;;19.65;5.68;;;;;;;21.08;52.82;101326.97;5084844;27;20048;-75
2022/08/13 05:12:11;;;;;;;11.63;3.90;;;;;;;21.20;52.81;101333.09;5081492;27;20040;-75
2022/08/13 05:14:37;;;;;;;6.18;3.45;;;;;;;21.35;53.03;101326.44;5084292;28;20598;-75
2022/08/13 05:17:07;;;;;;;8.18;4.50;;;;;;;21.58;52.53;101319.09;5083301;28;20078;-75
2022/08/13 05:19:33;;;;;;;6.60;4.05;;;;;;;21.86;51.47;101318.31;5082239;27;20503;-75
2022/08/13 05:22:00;;;;;;;9.68;4.18;;;;;;;22.17;50.69;101319.91;5085391;27;20036;-75
2022/08/13 05:24:26;;;;;;;5.18;3.90;;;;;;;22.51;49.96;101316.81;5085460;27;20051;-75
2022/08/13 05:26:53;;;;;;;5.50;3.63;;;;;;;22.56;49.87;101323.44;5082898;27;20094;-75
2022/08/13 05:29:19;;;;;;;6.18;3.67;;;;;;;22.85;49.47;101325.22;5084849;27;20044;-75
2022/08/13 05:31:46;;;;;;;6.85;3.88;;;;;;;23.14;48.54;101323.31;5084588;27;20699;-75
2022/08/13 05:34:14;;;;;;;6.13;4.07;;;;;;;23.51;47.26;101326.00;5082562;27;20050;-75
2022/08/13 05:36:42;;;;;;;7.43;3.95;;;;;;;23.54;47.46;101326.56;5085301;28;20471;-75
2022/08/13 05:39:09;;;;;;;7.13;4.03;;;;;;;23.64;47.46;101330.06;5084434;28;20052;-75
2022/08/13 05:41:36;;;;;;;8.48;4.07;;;;;;;23.80;46.90;101328.56;5074907;28;20053;-76
2022/08/13 05:44:02;;;;;;;4.90;3.83;;;;;;;24.36;45.48;101317.56;5068684;28;20472;-75
2022/08/13 05:46:30;;;;;;;8.93;4.20;;;;;;;24.59;45.35;101340.25;5084780;28;20044;-75
2022/08/13 05:48:57;;;;;;;8.63;3.92;;;;;;;24.49;45.31;101323.41;5082760;28;20101;-75
2022/08/13 05:51:25;;;;;;;4.57;3.92;;;;;;;24.22;45.87;101321.66;5085444;28;20040;-75
2022/08/13 05:53:54;;;;;;;13.43;4.28;;;;;;;24.91;44.62;101334.28;5085631;28;20043;-75
2022/08/13 05:56:21;;;;;;;8.32;3.55;;;;;;;25.08;43.90;101325.38;5076595;28;20135;-75
2022/08/13 05:58:48;;;;;;;5.60;3.30;;;;;;;25.54;43.30;101329.47;5080961;28;20043;-75
2022/08/13 06:04:00;;;;;;;7.60;3.53;;;;;;;26.19;42.05;101329.69;5077064;28;20705;-75
2022/08/13 06:06:29;;;;;;;11.70;4.28;;;;;;;26.50;41.59;101330.72;5087071;28;20052;-75
2022/08/13 06:08:58;;;;;;;7.18;3.92;;;;;;;26.32;41.69;101322.81;5085942;28;20127;-75
2022/08/13 06:11:25;;;;;;;10.20;3.92;;;;;;;26.86;40.76;101326.72;5085980;28;20040;-75
2022/08/13 06:13:51;;;;;;;4.28;3.50;;;;;;;27.07;40.31;101324.31;5067647;28;20044;-75
2022/08/13 06:16:20;;;;;;;8.25;4.00;;;;;;;27.40;39.80;101325.03;5065194;28;20045;-75
2022/08/13 06:18:48;;;;;;;5.20;3.53;;;;;;;27.58;39.50;101331.06;5066776;28;20052;-75
2022/08/13 06:21:16;;;;;;;14.15;4.25;;;;;;;27.55;39.85;101328.72;5067779;28;20045;-75
2022/08/13 06:23:45;;;;;;;6.80;4.25;;;;;;;27.66;39.19;101329.31;5067340;28;20052;-75
2022/08/13 06:26:16;;;;;;;10.30;4.10;;;;;;;27.78;39.17;101320.69;5067989;28;20412;-75
2022/08/13 06:28:44;;;;;;;4.27;3.87;;;;;;;28.38;37.90;101325.38;5067997;28;20124;-76
2022/08/13 06:31:13;;;;;;;5.90;3.75;;;;;;;28.78;37.23;101324.22;5088389;28;20044;-75
2022/08/13 06:33:41;;;;;;;7.97;3.80;;;;;;;29.11;36.01;101328.25;5087693;28;20059;-75
2022/08/13 06:36:11;;;;;;;4.80;3.67;;;;;;;29.20;36.13;101339.78;5087027;28;20039;-75
2022/08/13 06:38:42;;;;;;;5.00;4.18;;;;;;;29.05;36.46;101333.56;5087778;28;20505;-76
2022/08/13 06:41:11;;;;;;;5.35;4.03;;;;;;;29.64;35.75;101332.50;5087479;28;20065;-75
2022/08/13 06:43:41;;;;;;;5.43;3.88;;;;;;;29.70;36.02;101337.19;5085705;27;20044;-75
2022/08/13 06:46:10;;;;;;;7.80;4.10;;;;;;;30.47;33.68;101323.06;5086941;27;20044;-75
2022/08/13 06:48:37;;;;;;;6.28;4.38;;;;;;;31.08;32.42;101322.31;5088948;27;20060;-75
2022/08/13 06:51:06;;;;;;;6.53;4.30;;;;;;;31.19;33.16;101326.38;5086233;27;20044;-75
2022/08/13 06:53:35;;;;;;;8.93;3.90;;;;;;;30.72;33.67;101327.88;5087164;27;20065;-75
2022/08/13 06:56:04;;;;;;;5.50;3.92;;;;;;;30.55;33.31;101326.50;5095624;27;20047;-75
2022/08/13 06:58:32;;;;;;;6.93;4.00;;;;;;;31.06;33.67;101331.69;5102439;27;20056;-75
2022/08/13 07:00:59;;;;;;;4.70;3.97;;;;;;;31.51;32.85;101332.97;5086762;28;20735;-75
2022/08/13 07:03:27;;;;;;;6.00;3.72;;;;;;;31.80;32.22;101324.56;5086550;28;20062;-75
2022/08/13 07:05:56;;;;;;;11.40;4.20;;;;;;;31.84;32.67;101332.09;5086556;27;20069;-75
2022/08/13 07:08:24;;;;;;;4.95;4.45;;;;;;;30.91;33.94;101337.19;5086391;27;20048;-75
2022/08/13 07:11:21;;;;;;;6.22;3.80;;;;;;;30.64;33.86;101330.72;5085507;27;20040;-75
2022/08/13 07:13:43;;;;;;;7.93;4.35;;;;;;;30.50;35.45;101330.78;5086679;27;20127;-75
2022/08/13 07:16:11;;;;;;;9.45;4.10;;;;;;;30.44;34.49;101332.44;5085603;27;20044;-75
2022/08/13 07:18:38;;;;;;;5.97;3.75;;;;;;;30.96;35.00;101332.00;5086320;27;20048;-75
2022/08/13 07:21:10;;;;;;;7.45;4.00;;;;;;;31.31;33.83;101319.31;5087505;27;20541;-75
2022/08/13 07:23:36;;;;;;;8.93;4.00;;;;;;;31.69;34.33;101317.88;5086908;27;20523;-75
2022/08/13 07:26:03;;;;;;;5.55;3.92;;;;;;;32.26;32.31;101313.88;5086459;27;20048;-75
2022/08/13 07:28:31;;;;;;;8.63;3.70;;;;;;;32.63;32.06;101315.97;5086570;27;20411;-75
2022/08/13 07:30:59;;;;;;;6.03;3.55;;;;;;;32.94;30.91;101315.31;5084948;27;20040;-75
2022/08/13 07:33:26;;;;;;;8.10;3.90;;;;;;;33.31;31.64;101318.41;5086112;27;20072;-75
2022/08/13 07:35:53;;;;;;;5.55;3.85;;;;;;;33.38;30.46;101317.31;5088498;27;20098;-75
2022/08/13 07:38:20;;;;;;;6.03;3.65;;;;;;;33.78;30.87;101314.50;5086270;27;20044;-75
2022/08/13 07:40:48;;;;;;;6.47;3.70;;;;;;;33.84;30.39;101314.44;5082309;27;20056;-75
2022/08/13 07:43:19;;;;;;;7.10;3.90;;;;;;;33.37;29.29;101312.13;5069256;28;20528;-75
2022/08/13 07:45:58;;;;;;;6.45;3.90;;;;;;;32.74;30.93;101311.81;5076325;28;20040;-74
2022/08/13 07:48:26;;;;;;;6.18;3.35;;;;;;;32.91;31.86;101318.47;5087430;28;20044;-75
2022/08/13 07:50:53;;;;;;;7.95;3.83;;;;;;;33.91;29.30;101315.25;5083390;28;20048;-73
2022/08/13 07:53:23;;;;;;;8.23;3.63;;;;;;;34.44;29.30;101309.47;5086327;28;20492;-73
2022/08/13 07:55:51;;;;;;;4.32;3.30;;;;;;;33.94;29.97;101314.78;5084940;28;20051;-73
2022/08/13 07:58:17;;;;;;;6.28;3.10;;;;;;;34.26;29.99;101312.13;5071638;28;20040;-73
2022/08/13 08:00:45;;;;;;;5.35;3.40;;;;;;;34.03;28.94;101312.66;5083409;28;20044;-73
2022/08/13 08:03:13;;;;;;;6.22;3.88;;;;;;;34.07;28.68;101316.63;5086893;28;20097;-73
2022/08/13 08:05:43;;;;;;;5.47;3.60;;;;;;;33.23;29.80;101327.63;5086064;28;20055;-73
2022/08/13 08:08:10;;;;;;;6.03;3.55;;;;;;;33.68;31.30;101331.25;5085545;28;20151;-74
2022/08/13 08:10:39;;;;;;;6.60;4.13;;;;;;;33.06;30.41;101329.09;5083237;28;20419;-75
2022/08/13 08:13:07;;;;;;;8.50;3.55;;;;;;;32.35;31.41;101328.91;5085328;28;20404;-75
2022/08/13 08:15:36;;;;;;;5.40;3.47;;;;;;;32.27;31.55;101326.38;5085017;27;20066;-75
2022/08/13 08:18:03;;;;;;;7.72;3.80;;;;;;;32.20;32.13;101336.38;5084537;27;20534;-75
2022/08/13 08:20:29;;;;;;;5.90;3.55;;;;;;;33.31;31.99;101330.09;5085581;27;20093;-75
2022/08/13 08:22:58;;;;;;;5.43;3.63;;;;;;;33.74;29.62;101328.50;5084849;27;20052;-75
2022/08/13 08:25:25;;;;;;;5.43;3.70;;;;;;;34.50;29.76;101330.34;5085236;27;20069;-75
2022/08/13 08:27:51;;;;;;;6.53;3.60;;;;;;;35.23;27.90;101325.09;5085806;28;20101;-73
2022/08/13 08:30:19;;;;;;;5.38;3.60;;;;;;;34.65;29.05;101323.56;5083001;28;20040;-73
2022/08/13 08:32:51;;;;;;;5.72;3.60;;;;;;;34.59;29.91;101335.28;5084906;28;20105;-74
2022/08/13 08:35:18;;;;;;;9.23;4.07;;;;;;;34.59;28.95;101332.56;5085723;28;20048;-75
2022/08/13 08:43:16;;;;;;;7.82;4.18;;;;;;;33.58;30.91;101328.97;5083002;28;20055;-76
2022/08/13 08:45:42;;;;;;;7.80;4.57;;;;;;;33.67;30.12;101324.97;5085315;28;20749;-75
2022/08/13 08:48:09;;;;;;;6.90;4.43;;;;;;;34.11;30.70;101326.81;5084852;28;20047;-75
2022/08/13 08:50:37;;;;;;;7.60;4.22;;;;;;;34.96;28.36;101316.34;5082681;28;20054;-75
2022/08/13 08:53:21;;;;;;;5.32;3.72;;;;;;;34.82;28.36;101328.41;5085357;28;20039;-75
2022/08/13 08:55:50;;;;;;;6.38;4.10;;;;;;;33.78;29.20;101328.91;5076183;28;20071;-75
2022/08/13 08:58:18;;;;;;;5.82;3.95;;;;;;;34.60;29.06;101322.50;5069086;28;20093;-75
2022/08/13 09:00:47;;;;;;;7.05;4.22;;;;;;;34.09;29.44;101328.09;5083457;28;20040;-75
2022/08/13 09:03:17;;;;;;;6.85;4.00;;;;;;;33.46;30.51;101324.41;5077726;27;20462;-75
2022/08/13 09:05:45;;;;;;;8.55;3.88;;;;;;;33.81;30.58;101319.50;5082120;27;20074;-75
2022/08/13 09:08:15;;;;;;;5.43;4.22;;;;;;;34.18;30.62;101321.38;5085297;27;20048;-75
2022/08/13 09:10:42;;;;;;;5.53;4.07;;;;;;;33.97;30.45;101327.13;5082656;27;20105;-75
2022/08/13 09:13:12;;;;;;;4.85;4.25;;;;;;;34.26;29.98;101323.81;5084213;27;20039;-75
2022/08/13 09:15:40;;;;;;;4.93;4.43;;;;;;;34.68;29.83;101322.25;5084468;28;20055;-75
2022/08/13 09:18:07;;;;;;;6.97;4.38;;;;;;;35.20;28.94;101320.94;5083494;28;20078;-75
2022/08/13 09:20:34;;;;;;;7.45;4.25;;;;;;;35.11;29.66;101325.81;5082062;27;20044;-75
2022/08/13 09:23:04;;;;;;;6.45;4.28;;;;;;;34.86;29.86;101321.47;5085512;27;20064;-75
2022/08/13 09:25:31;;;;;;;6.78;4.55;;;;;;;35.41;28.89;101312.28;5076975;27;20388;-75
2022/08/13 09:27:58;;;;;;;6.05;4.40;;;;;;;35.55;29.50;101315.69;5084500;28;20094;-75
2022/08/13 09:30:27;;;;;;;7.10;4.47;;;;;;;35.12;29.34;101307.56;5086128;27;20040;-76
2022/08/13 09:32:56;;;;;;;5.85;4.53;;;;;;;35.27;29.13;101326.31;5089851;28;20048;-75
2022/08/13 09:35:25;;;;;;;7.18;4.22;;;;;;;35.09;29.77;101314.31;5090614;28;20404;-77
2022/08/13 09:37:56;;;;;;;4.78;4.28;;;;;;;34.95;29.78;101320.13;5088351;28;20538;-76
2022/08/13 09:40:25;;;;;;;5.10;4.32;;;;;;;35.23;30.06;101319.63;5092446;27;20040;-75
2022/08/13 09:42:57;;;;;;;7.72;4.25;;;;;;;33.93;30.30;101317.72;5086549;28;20070;-75
2022/08/13 09:45:25;;;;;;;9.85;4.75;;;;;;;34.09;32.06;101319.94;5091695;27;20044;-75
2022/08/13 09:47:53;;;;;;;5.35;4.30;;;;;;;34.47;29.80;101314.47;5092991;27;20063;-74
2022/08/13 09:50:21;;;;;;;7.10;4.40;;;;;;;33.72;31.46;101317.00;5096439;27;20051;-76
2022/08/13 09:52:48;;;;;;;7.18;4.22;;;;;;;33.85;30.95;101318.00;5084171;27;20059;-76
2022/08/13 09:55:14;;;;;;;6.40;3.75;;;;;;;32.79;32.00;101312.00;5086865;27;20097;-75
2022/08/13 09:57:59;;;;;;;6.07;4.13;;;;;;;33.12;32.53;101314.69;5124296;27;20097;-76
2022/08/13 10:00:28;;;;;;;5.35;4.18;;;;;;;33.48;31.56;101309.53;5094162;27;20055;-76
2022/08/13 10:02:59;;;;;;;7.90;4.25;;;;;;;32.63;32.45;101310.53;5095000;28;20097;-77
2022/08/13 10:05:26;;;;;;;7.65;4.35;;;;;;;32.17;33.71;101307.78;5094127;28;20056;-75
2022/08/13 10:07:53;;;;;;;7.05;4.30;;;;;;;31.96;33.70;101312.53;5091126;28;20050;-76
2022/08/13 10:10:20;;;;;;;5.15;4.30;;;;;;;32.29;33.26;101308.84;5091862;28;20044;-76
2022/08/13 10:12:47;;;;;;;6.05;4.30;;;;;;;31.76;33.65;101302.44;5092900;28;20048;-76
2022/08/13 10:15:15;;;;;;;5.60;4.53;;;;;;;31.70;33.97;101308.69;5091290;27;20044;-76
2022/08/13 10:17:51;;;;;;;5.43;4.43;;;;;;;31.00;35.27;101317.06;5087718;27;20048;-75
2022/08/13 10:20:21;;;;;;;8.82;4.70;;;;;;;30.61;35.98;101312.16;5090402;27;20971;-77
2022/08/13 10:22:48;;;;;;;11.10;5.05;;;;;;;30.71;35.95;101315.34;5092330;28;20040;-76
2022/08/13 10:25:16;;;;;;;8.77;4.70;;;;;;;30.45;36.89;101309.72;5091721;28;20065;-76
2022/08/13 10:27:44;;;;;;;6.82;4.70;;;;;;;29.93;37.39;101318.97;5093105;28;20052;-75
2022/08/13 10:30:12;;;;;;;8.30;4.80;;;;;;;29.54;38.54;101318.47;5093413;28;20083;-76
2022/08/13 10:32:39;;;;;;;8.05;4.63;;;;;;;30.05;37.87;101313.88;5091693;28;20101;-76
2022/08/13 10:35:07;;;;;;;7.22;5.00;;;;;;;29.91;37.86;101310.22;5092014;28;20567;-76
2022/08/13 10:37:43;;;;;;;7.40;4.70;;;;;;;29.81;37.95;101304.25;5092020;28;20040;-75
2022/08/13 10:40:14;;;;;;;11.77;5.05;;;;;;;29.78;37.48;101306.50;5092054;28;20040;-76
2022/08/13 10:42:44;;;;;;;8.68;5.00;;;;;;;30.23;37.13;101300.75;5090437;28;20067;-74
2022/08/13 10:45:12;;;;;;;8.88;4.63;;;;;;;29.95;37.25;101303.41;5090971;28;20070;-76
2022/08/13 10:47:45;;;;;;;10.07;4.68;;;;;;;30.10;37.42;101308.75;5094362;27;20074;-76
2022/08/13 10:50:13;;;;;;;5.70;4.13;;;;;;;30.15;37.38;101305.47;5088312;27;20040;-76
2022/08/13 10:52:41;;;;;;;8.00;4.70;;;;;;;29.89;38.11;101301.47;5074494;27;20056;-76
2022/08/13 10:55:12;;;;;;;6.97;4.88;;;;;;;30.35;37.75;101296.50;5067849;28;20124;-75
2022/08/13 10:57:39;;;;;;;9.70;4.80;;;;;;;29.79;37.98;101303.59;5083615;28;20067;-76
2022/08/13 11:00:07;;;;;;;6.60;4.75;;;;;;;30.27;38.01;101295.78;5087344;28;20279;-75
2022/08/13 11:02:33;;;;;;;6.22;4.60;;;;;;;29.79;38.55;101306.28;5086720;28;20054;-75
2022/08/13 11:05:03;;;;;;;8.55;5.00;;;;;;;29.72;39.16;101312.66;5085883;27;20085;-75
2022/08/13 11:07:31;;;;;;;8.85;4.68;;;;;;;29.37;39.42;101308.91;5067351;28;20488;-75
2022/08/13 11:09:59;;;;;;;9.60;4.63;;;;;;;29.34;39.53;101309.28;5066558;28;20075;-75
2022/08/13 11:12:25;;;;;;;11.68;4.88;;;;;;;29.21;39.67;101312.59;5082834;28;20458;-75
2022/08/13 11:14:52;;;;;;;6.97;4.85;;;;;;;29.18;39.96;101317.53;5087798;28;20051;-75
2022/08/13 11:17:19;;;;;;;8.13;5.03;;;;;;;28.56;41.39;101327.75;5087594;28;20052;-75
2022/08/13 11:19:48;;;;;;;9.50;5.20;;;;;;;28.39;42.35;101322.47;5084705;28;20052;-75
2022/08/13 11:22:15;;;;;;;10.52;5.30;;;;;;;28.65;41.77;101316.69;5086923;28;20044;-76
2022/08/13 11:24:41;;;;;;;7.68;4.88;;;;;;;28.58;41.35;101321.16;5087263;28;20109;-75
2022/08/13 11:27:09;;;;;;;11.10;5.22;;;;;;;28.28;42.27;101324.75;5067126;28;20070;-75
2022/08/13 11:29:36;;;;;;;7.68;5.03;;;;;;;28.13;43.16;101329.25;5077666;28;20431;-75
2022/08/13 11:32:03;;;;;;;6.75;5.05;;;;;;;27.76;44.34;101314.63;5083432;28;20044;-76
2022/08/13 11:34:29;;;;;;;6.97;4.95;;;;;;;27.81;44.72;101314.09;5085527;28;20089;-76
2022/08/13 11:36:56;;;;;;;7.70;5.10;;;;;;;27.87;44.57;101307.97;5085503;27;20093;-75
2022/08/13 11:39:23;;;;;;;7.93;5.30;;;;;;;28.20;44.71;101298.69;5066650;28;20044;-75
2022/08/13 11:41:49;;;;;;;6.50;5.05;;;;;;;28.56;43.01;101293.53;5073618;27;20590;-75
2022/08/13 11:44:17;;;;;;;9.43;5.05;;;;;;;28.65;44.20;101300.50;5079220;28;20407;-75